createdAt,value
2022-10-10T00:00:17.096Z,7.29
2022-10-10T00:01:16.523Z,7.27
2022-10-10T00:02:16.283Z,7.24
2022-10-10T00:03:16.759Z,7.24
2022-10-10T00:04:17.228Z,7.22
2022-10-10T00:05:16.692Z,7.17
2022-10-10T00:06:17.162Z,7.16
2022-10-10T00:07:16.606Z,7.15
2022-10-10T00:08:17.071Z,7.12
2022-10-10T00:09:16.573Z,7.09
2022-10-10T00:10:17.032Z,7.09
2022-10-10T00:11:16.511Z,7.09
2022-10-10T00:12:16.485Z,7.09
2022-10-10T00:13:16.911Z,7.06
2022-10-10T00:14:16.374Z,7.05
2022-10-10T00:15:16.799Z,7.05
2022-10-10T00:16:17.220Z,7.05
2022-10-10T00:17:16.648Z,7.03
2022-10-10T00:18:17.090Z,7.03
2022-10-10T00:19:16.548Z,7.02
2022-10-10T00:20:16.995Z,7.05
2022-10-10T00:21:16.467Z,7.05
2022-10-10T00:22:16.877Z,7.06
2022-10-10T00:23:16.365Z,7.05
2022-10-10T00:24:16.822Z,7.02
2022-10-10T00:25:17.291Z,7.03
2022-10-10T00:26:19.098Z,7.05
2022-10-10T00:27:17.015Z,7.05
2022-10-10T00:28:16.540Z,7.05
2022-10-10T00:29:17.053Z,7.07
2022-10-10T00:30:16.503Z,7.07
2022-10-10T00:31:16.928Z,7.05
2022-10-10T00:32:16.557Z,7.05
2022-10-10T00:33:17.049Z,7.03
2022-10-10T00:34:16.513Z,7.05
2022-10-10T00:35:17.013Z,6.99
2022-10-10T00:36:16.468Z,7.00
2022-10-10T00:37:16.969Z,6.95
2022-10-10T00:38:16.486Z,6.96
2022-10-10T00:39:16.946Z,6.99
2022-10-10T00:40:16.382Z,6.96
2022-10-10T00:41:16.806Z,6.96
2022-10-10T00:42:16.412Z,6.94
2022-10-10T00:43:16.854Z,6.92
2022-10-10T00:44:16.283Z,6.89
2022-10-10T00:45:16.718Z,6.89
2022-10-10T00:46:17.147Z,6.89
2022-10-10T00:47:16.589Z,6.86
2022-10-10T00:48:17.052Z,6.86
2022-10-10T00:49:16.544Z,6.86
2022-10-10T00:50:17.012Z,6.86
2022-10-10T00:51:16.503Z,6.86
2022-10-10T00:52:17.079Z,6.85
2022-10-10T00:53:16.528Z,6.82
2022-10-10T00:54:16.946Z,6.81
2022-10-10T00:55:16.389Z,6.84
2022-10-10T00:56:16.863Z,6.86
2022-10-10T00:57:16.281Z,6.86
2022-10-10T00:58:16.707Z,6.84
2022-10-10T00:59:17.153Z,6.79
2022-10-10T01:00:16.587Z,6.81
2022-10-10T01:01:17.084Z,6.78
2022-10-10T01:02:16.589Z,6.78
2022-10-10T01:03:17.065Z,6.84
2022-10-10T01:04:16.540Z,6.84
2022-10-10T01:05:17.016Z,6.86
2022-10-10T01:06:16.507Z,6.85
2022-10-10T01:07:17.005Z,6.85
2022-10-10T01:08:16.455Z,6.84
2022-10-10T01:09:16.883Z,6.85
2022-10-10T01:10:16.311Z,6.89
2022-10-10T01:11:16.745Z,6.91
2022-10-10T01:12:17.276Z,6.92
2022-10-10T01:13:16.709Z,6.92
2022-10-10T01:14:17.137Z,6.94
2022-10-10T01:15:16.580Z,6.92
2022-10-10T01:16:17.076Z,6.96
2022-10-10T01:17:16.580Z,7.00
2022-10-10T01:18:17.047Z,6.99
2022-10-10T01:19:16.536Z,7.00
2022-10-10T01:20:16.982Z,7.02
2022-10-10T01:21:16.445Z,7.00
2022-10-10T01:22:17.062Z,7.03
2022-10-10T01:23:16.488Z,7.05
2022-10-10T01:24:16.972Z,7.07
2022-10-10T01:25:16.433Z,7.02
2022-10-10T01:26:16.945Z,7.09
2022-10-10T01:27:16.402Z,7.07
2022-10-10T01:28:16.880Z,7.09
2022-10-10T01:29:16.364Z,7.12
2022-10-10T01:30:16.812Z,7.12
2022-10-10T01:31:17.286Z,7.12
2022-10-10T01:32:16.540Z,7.16
2022-10-10T01:33:17.008Z,7.17
2022-10-10T01:34:16.510Z,7.16
2022-10-10T01:35:16.972Z,7.19
2022-10-10T01:36:16.460Z,7.20
2022-10-10T01:37:16.957Z,7.20
2022-10-10T01:38:16.373Z,7.23
2022-10-10T01:39:16.809Z,7.22
2022-10-10T01:40:17.292Z,7.22
2022-10-10T01:41:16.782Z,7.22
2022-10-10T01:42:16.980Z,7.17
2022-10-10T01:43:16.418Z,7.13
2022-10-10T01:44:20.418Z,7.13
2022-10-10T01:45:17.129Z,7.10
2022-10-10T01:46:16.586Z,7.12
2022-10-10T01:47:17.067Z,7.09
2022-10-10T01:48:16.518Z,7.09
2022-10-10T01:49:16.961Z,7.05
2022-10-10T01:50:16.422Z,7.03
2022-10-10T01:51:16.902Z,7.03
2022-10-10T01:52:17.255Z,7.03
2022-10-10T01:53:16.695Z,7.00
2022-10-10T01:54:17.128Z,7.00
2022-10-10T01:55:16.565Z,6.98
2022-10-10T01:56:16.987Z,6.99
2022-10-10T01:57:16.428Z,6.96
2022-10-10T01:58:16.880Z,6.98
2022-10-10T01:59:16.323Z,6.94
2022-10-10T02:00:16.784Z,6.92
2022-10-10T02:01:17.310Z,6.91
2022-10-10T02:02:16.637Z,6.89
2022-10-10T02:03:17.120Z,6.86
2022-10-10T02:04:16.606Z,6.84
2022-10-10T02:05:17.060Z,6.84
2022-10-10T02:06:16.513Z,6.82
2022-10-10T02:07:16.957Z,6.82
2022-10-10T02:08:16.388Z,6.78
2022-10-10T02:09:16.819Z,6.79
2022-10-10T02:10:17.238Z,6.75
2022-10-10T02:11:16.659Z,6.72
2022-10-10T02:12:16.863Z,6.75
2022-10-10T02:13:16.301Z,6.71
2022-10-10T02:14:16.761Z,6.71
2022-10-10T02:15:17.255Z,6.69
2022-10-10T02:16:16.713Z,6.69
2022-10-10T02:17:17.183Z,6.72
2022-10-10T02:18:16.657Z,6.67
2022-10-10T02:19:17.153Z,6.69
2022-10-10T02:20:16.632Z,6.68
2022-10-10T02:21:17.080Z,6.67
2022-10-10T02:22:16.586Z,6.67
2022-10-10T02:23:17.013Z,6.65
2022-10-10T02:24:16.490Z,6.64
2022-10-10T02:25:16.958Z,6.65
2022-10-10T02:26:16.380Z,6.64
2022-10-10T02:27:16.814Z,6.65
2022-10-10T02:28:17.359Z,6.63
2022-10-10T02:29:16.966Z,6.64
2022-10-10T02:30:16.431Z,6.61
2022-10-10T02:31:16.891Z,6.58
2022-10-10T02:32:16.764Z,6.61
2022-10-10T02:33:17.231Z,6.61
2022-10-10T02:34:16.692Z,6.61
2022-10-10T02:35:17.131Z,6.58
2022-10-10T02:36:16.590Z,6.54
2022-10-10T02:37:17.009Z,6.54
2022-10-10T02:38:16.456Z,6.54
2022-10-10T02:39:16.887Z,6.51
2022-10-10T02:40:16.314Z,6.52
2022-10-10T02:41:16.783Z,6.51
2022-10-10T02:42:16.452Z,6.49
2022-10-10T02:43:16.939Z,6.48
2022-10-10T02:44:16.426Z,6.48
2022-10-10T02:45:16.929Z,6.45
2022-10-10T02:46:16.831Z,6.45
2022-10-10T02:47:16.293Z,6.43
2022-10-10T02:48:16.788Z,6.44
2022-10-10T02:49:17.295Z,6.41
2022-10-10T02:50:16.728Z,6.41
2022-10-10T02:51:17.158Z,6.37
2022-10-10T02:52:17.122Z,6.37
2022-10-10T02:53:16.567Z,6.33
2022-10-10T02:54:17.028Z,6.30
2022-10-10T02:55:16.497Z,6.30
2022-10-10T02:56:16.917Z,6.26
2022-10-10T02:57:16.370Z,6.23
2022-10-10T02:58:16.827Z,6.26
2022-10-10T02:59:17.327Z,6.23
2022-10-10T03:00:16.816Z,6.21
2022-10-10T03:01:17.353Z,6.19
2022-10-10T03:02:16.680Z,6.19
2022-10-10T03:03:17.183Z,6.14
2022-10-10T03:04:16.651Z,6.16
2022-10-10T03:05:17.090Z,6.13
2022-10-10T03:06:16.536Z,6.12
2022-10-10T03:07:17.007Z,6.08
2022-10-10T03:08:16.442Z,6.09
2022-10-10T03:09:16.890Z,6.06
2022-10-10T03:10:16.320Z,6.05
2022-10-10T03:11:16.769Z,6.05
2022-10-10T03:12:16.564Z,5.99
2022-10-10T03:13:17.052Z,6.00
2022-10-10T03:14:16.564Z,5.98
2022-10-10T03:15:17.049Z,5.98
2022-10-10T03:16:16.517Z,5.96
2022-10-10T03:17:16.974Z,5.95
2022-10-10T03:18:16.477Z,5.92
2022-10-10T03:19:16.967Z,5.91
2022-10-10T03:20:16.408Z,5.92
2022-10-10T03:21:16.899Z,5.88
2022-10-10T03:22:16.461Z,5.86
2022-10-10T03:23:16.893Z,5.82
2022-10-10T03:24:16.325Z,5.81
2022-10-10T03:25:16.752Z,5.79
2022-10-10T03:26:17.228Z,5.78
2022-10-10T03:27:16.694Z,5.78
2022-10-10T03:28:17.306Z,5.75
2022-10-10T03:29:16.896Z,5.74
2022-10-10T03:30:16.367Z,5.72
2022-10-10T03:31:16.835Z,5.72
2022-10-10T03:32:16.469Z,5.68
2022-10-10T03:33:16.967Z,5.68
2022-10-10T03:34:16.412Z,5.64
2022-10-10T03:35:16.849Z,5.65
2022-10-10T03:36:17.281Z,5.64
2022-10-10T03:37:16.706Z,5.62
2022-10-10T03:38:17.169Z,5.65
2022-10-10T03:39:16.604Z,5.65
2022-10-10T03:40:17.043Z,5.64
2022-10-10T03:41:16.470Z,5.62
2022-10-10T03:42:16.336Z,5.62
2022-10-10T03:43:16.775Z,5.60
2022-10-10T03:44:17.236Z,5.61
2022-10-10T03:45:16.725Z,5.61
2022-10-10T03:46:17.188Z,5.61
2022-10-10T03:47:16.655Z,5.64
2022-10-10T03:48:17.144Z,5.65
2022-10-10T03:49:16.574Z,5.61
2022-10-10T03:50:17.013Z,5.61
2022-10-10T03:51:16.463Z,5.58
2022-10-10T03:52:16.968Z,5.60
2022-10-10T03:53:16.433Z,5.60
2022-10-10T03:54:16.872Z,5.61
2022-10-10T03:55:16.328Z,5.61
2022-10-10T03:56:16.825Z,5.64
2022-10-10T03:57:16.309Z,5.62
2022-10-10T03:58:20.120Z,5.65
2022-10-10T03:59:16.362Z,5.67
2022-10-10T04:00:16.840Z,5.71
2022-10-10T04:01:16.346Z,5.74
2022-10-10T04:02:16.688Z,5.72
2022-10-10T04:03:17.104Z,5.77
2022-10-10T04:04:16.544Z,5.79
2022-10-10T04:05:17.008Z,5.78
2022-10-10T04:06:16.441Z,5.81
2022-10-10T04:07:16.857Z,5.78
2022-10-10T04:08:16.296Z,5.82
2022-10-10T04:09:16.756Z,5.82
2022-10-10T04:10:17.222Z,5.82
2022-10-10T04:11:16.694Z,5.82
2022-10-10T04:12:16.880Z,5.82
2022-10-10T04:13:16.329Z,5.88
2022-10-10T04:14:16.822Z,5.86
2022-10-10T04:15:17.297Z,5.86
2022-10-10T04:16:16.804Z,5.82
2022-10-10T04:17:17.254Z,5.85
2022-10-10T04:18:16.678Z,5.84
2022-10-10T04:19:17.128Z,5.81
2022-10-10T04:20:16.549Z,5.81
2022-10-10T04:21:16.987Z,5.81
2022-10-10T04:22:16.514Z,5.77
2022-10-10T04:23:16.941Z,5.75
2022-10-10T04:24:16.408Z,5.77
2022-10-10T04:25:16.878Z,5.74
2022-10-10T04:26:16.344Z,5.77
2022-10-10T04:27:16.816Z,5.77
2022-10-10T04:28:17.408Z,5.79
2022-10-10T04:29:16.967Z,5.77
2022-10-10T04:30:16.427Z,5.77
2022-10-10T04:31:16.884Z,5.78
2022-10-10T04:32:17.263Z,5.77
2022-10-10T04:33:16.686Z,5.78
2022-10-10T04:34:17.128Z,5.74
2022-10-10T04:35:16.567Z,5.68
2022-10-10T04:36:17.014Z,5.68
2022-10-10T04:37:16.467Z,5.70
2022-10-10T04:38:16.891Z,5.70
2022-10-10T04:39:16.339Z,5.68
2022-10-10T04:40:16.790Z,5.67
2022-10-10T04:41:17.257Z,5.71
2022-10-10T04:42:16.362Z,5.71
2022-10-10T04:43:16.855Z,5.71
2022-10-10T04:44:16.344Z,5.72
2022-10-10T04:45:16.795Z,5.74
2022-10-10T04:46:17.244Z,5.77
2022-10-10T04:47:16.678Z,5.78
2022-10-10T04:48:17.121Z,5.78
2022-10-10T04:49:16.549Z,5.79
2022-10-10T04:50:16.978Z,5.77
2022-10-10T04:51:16.397Z,5.81
2022-10-10T04:52:16.956Z,5.81
2022-10-10T04:53:16.401Z,5.82
2022-10-10T04:54:16.844Z,5.84
2022-10-10T04:55:16.293Z,5.79
2022-10-10T04:56:16.767Z,5.77
2022-10-10T04:57:17.259Z,5.75
2022-10-10T04:58:16.758Z,5.71
2022-10-10T04:59:17.270Z,5.68
2022-10-10T05:00:16.731Z,5.67
2022-10-10T05:01:17.188Z,5.67
2022-10-10T05:02:16.918Z,5.62
2022-10-10T05:03:16.389Z,5.64
2022-10-10T05:04:16.832Z,5.60
2022-10-10T05:05:17.255Z,5.54
2022-10-10T05:06:16.680Z,5.48
2022-10-10T05:07:17.109Z,5.51
2022-10-10T05:08:16.583Z,5.51
2022-10-10T05:09:17.024Z,5.50
2022-10-10T05:10:16.516Z,5.47
2022-10-10T05:11:16.989Z,5.48
2022-10-10T05:12:16.491Z,5.48
2022-10-10T05:13:16.940Z,5.45
2022-10-10T05:14:16.447Z,5.43
2022-10-10T05:15:16.934Z,5.40
2022-10-10T05:16:16.413Z,5.40
2022-10-10T05:17:16.857Z,5.37
2022-10-10T05:18:16.313Z,5.37
2022-10-10T05:19:16.747Z,5.31
2022-10-10T05:20:17.203Z,5.30
2022-10-10T05:21:16.614Z,5.28
2022-10-10T05:22:16.427Z,5.30
2022-10-10T05:23:16.877Z,5.28
2022-10-10T05:24:16.373Z,5.28
2022-10-10T05:25:16.831Z,5.30
2022-10-10T05:26:16.327Z,5.30
2022-10-10T05:27:16.793Z,5.27
2022-10-10T05:28:17.324Z,5.27
2022-10-10T05:29:16.857Z,5.30
2022-10-10T05:30:16.361Z,5.28
2022-10-10T05:31:16.858Z,5.27
2022-10-10T05:32:16.472Z,5.26
2022-10-10T05:33:16.893Z,5.24
2022-10-10T05:34:16.356Z,5.24
2022-10-10T05:35:16.799Z,5.19
2022-10-10T05:36:17.243Z,5.22
2022-10-10T05:37:16.688Z,5.19
2022-10-10T05:38:17.160Z,5.20
2022-10-10T05:39:16.647Z,5.19
2022-10-10T05:40:17.119Z,5.16
2022-10-10T05:41:16.621Z,5.20
2022-10-10T05:42:16.844Z,5.13
2022-10-10T05:43:16.346Z,5.17
2022-10-10T05:44:16.828Z,5.17
2022-10-10T05:45:16.276Z,5.17
2022-10-10T05:46:16.740Z,5.22
2022-10-10T05:47:17.174Z,5.22
2022-10-10T05:48:16.598Z,5.24
2022-10-10T05:49:17.033Z,5.24
2022-10-10T05:50:16.493Z,5.24
2022-10-10T05:51:16.931Z,5.24
2022-10-10T05:52:16.571Z,5.24
2022-10-10T05:53:17.086Z,5.26
2022-10-10T05:54:16.531Z,5.28
2022-10-10T05:55:17.007Z,5.30
2022-10-10T05:56:16.499Z,5.33
2022-10-10T05:57:16.964Z,5.31
2022-10-10T05:58:16.430Z,5.33
2022-10-10T05:59:16.895Z,5.35
2022-10-10T06:00:16.349Z,5.35
2022-10-10T06:01:16.791Z,5.37
2022-10-10T06:02:16.317Z,5.37
2022-10-10T06:03:16.796Z,5.34
2022-10-10T06:04:17.262Z,5.35
2022-10-10T06:05:16.696Z,5.33
2022-10-10T06:06:17.175Z,5.34
2022-10-10T06:07:16.632Z,5.37
2022-10-10T06:08:17.103Z,5.35
2022-10-10T06:09:16.592Z,5.38
2022-10-10T06:10:17.086Z,5.40
2022-10-10T06:11:16.566Z,5.38
2022-10-10T06:12:16.466Z,5.40
2022-10-10T06:13:20.439Z,5.38
2022-10-10T06:14:16.916Z,5.35
2022-10-10T06:15:16.364Z,5.38
2022-10-10T06:16:16.816Z,5.34
2022-10-10T06:17:16.408Z,5.34
2022-10-10T06:18:16.857Z,5.40
2022-10-10T06:19:16.297Z,5.41
2022-10-10T06:20:16.769Z,5.41
2022-10-10T06:21:17.272Z,5.41
2022-10-10T06:22:17.044Z,5.47
2022-10-10T06:23:16.502Z,5.44
2022-10-10T06:24:16.967Z,5.44
2022-10-10T06:25:35.740Z,5.47
2022-10-10T06:26:16.832Z,5.45
2022-10-10T06:27:16.291Z,5.47
2022-10-10T06:28:16.779Z,5.54
2022-10-10T06:29:16.340Z,5.50
2022-10-10T06:30:16.766Z,5.51
2022-10-10T06:31:17.189Z,5.51
2022-10-10T06:32:16.989Z,5.52
2022-10-10T06:33:16.419Z,5.54
2022-10-10T06:34:16.855Z,5.60
2022-10-10T06:35:16.368Z,5.57
2022-10-10T06:36:16.842Z,5.55
2022-10-10T06:37:16.296Z,5.52
2022-10-10T06:38:16.776Z,5.54
2022-10-10T06:39:17.271Z,5.54
2022-10-10T06:40:16.712Z,5.57
2022-10-10T06:41:17.173Z,5.57
2022-10-10T06:42:16.619Z,5.55
2022-10-10T06:43:17.082Z,5.57
2022-10-10T06:44:16.751Z,5.58
2022-10-10T06:45:17.215Z,5.60
2022-10-10T06:46:16.674Z,5.62
2022-10-10T06:47:17.096Z,5.70
2022-10-10T06:48:16.575Z,5.70
2022-10-10T06:49:17.028Z,5.77
2022-10-10T06:50:16.481Z,5.82
2022-10-10T06:51:16.956Z,5.81
2022-10-10T06:52:16.427Z,5.74
2022-10-10T06:53:16.905Z,5.78
2022-10-10T06:54:16.380Z,5.79
2022-10-10T06:55:16.879Z,5.85
2022-10-10T06:56:16.330Z,5.85
2022-10-10T06:57:16.755Z,5.89
2022-10-10T06:58:17.190Z,5.92
2022-10-10T06:59:16.633Z,5.98
2022-10-10T07:00:17.078Z,5.98
2022-10-10T07:01:16.586Z,6.00
2022-10-10T07:02:16.571Z,6.10
2022-10-10T07:03:17.018Z,6.10
2022-10-10T07:04:16.456Z,6.10
2022-10-10T07:05:16.951Z,6.21
2022-10-10T07:06:16.448Z,6.24
2022-10-10T07:07:16.946Z,6.26
2022-10-10T07:08:16.437Z,6.30
2022-10-10T07:09:16.906Z,6.33
2022-10-10T07:10:16.372Z,6.36
2022-10-10T07:11:16.808Z,6.37
2022-10-10T07:12:16.407Z,6.48
2022-10-10T07:13:16.894Z,6.55
2022-10-10T07:14:16.329Z,6.68
2022-10-10T07:15:16.876Z,6.84
2022-10-10T07:16:16.315Z,6.89
2022-10-10T07:17:16.780Z,6.82
2022-10-10T07:18:17.283Z,6.81
2022-10-10T07:19:16.768Z,6.79
2022-10-10T07:20:17.256Z,6.79
2022-10-10T07:21:16.712Z,6.89
2022-10-10T07:22:16.837Z,6.95
2022-10-10T07:23:16.314Z,7.00
2022-10-10T07:24:16.763Z,7.03
2022-10-10T07:25:17.225Z,7.09
2022-10-10T07:26:16.660Z,7.24
2022-10-10T07:27:17.086Z,7.31
2022-10-10T07:28:16.606Z,7.34
2022-10-10T07:29:17.192Z,7.43
2022-10-10T07:30:16.666Z,7.43
2022-10-10T07:31:17.097Z,7.47
2022-10-10T07:32:16.646Z,7.50
2022-10-10T07:33:17.100Z,7.53
2022-10-10T07:34:16.578Z,7.54
2022-10-10T07:35:17.030Z,7.57
2022-10-10T07:36:16.501Z,7.65
2022-10-10T07:37:16.997Z,7.69
2022-10-10T07:38:16.494Z,7.74
2022-10-10T07:39:17.156Z,7.81
2022-10-10T07:40:16.704Z,7.91
2022-10-10T07:41:17.157Z,7.98
2022-10-10T07:42:17.056Z,8.02
2022-10-10T07:43:16.522Z,8.37
2022-10-10T07:44:16.995Z,8.37
2022-10-10T07:45:16.434Z,8.54
2022-10-10T07:46:16.869Z,8.59
2022-10-10T07:47:16.344Z,8.61
2022-10-10T07:48:16.798Z,8.62
2022-10-10T07:49:17.280Z,8.64
2022-10-10T07:50:16.748Z,9.02
2022-10-10T07:51:17.247Z,8.99
2022-10-10T07:52:16.753Z,9.43
2022-10-10T07:53:17.236Z,9.40
2022-10-10T07:54:16.692Z,9.27
2022-10-10T07:55:17.115Z,9.38
2022-10-10T07:56:16.573Z,9.76
2022-10-10T07:57:17.037Z,9.72
2022-10-10T07:58:16.517Z,9.80
2022-10-10T07:59:16.949Z,9.69
2022-10-10T08:00:16.380Z,9.69
2022-10-10T08:01:16.928Z,9.89
2022-10-10T08:02:16.536Z,9.96
2022-10-10T08:03:17.168Z,9.91
2022-10-10T08:04:16.638Z,10.01
2022-10-10T08:05:17.111Z,10.19
2022-10-10T08:06:16.617Z,10.30
2022-10-10T08:07:17.111Z,10.24
2022-10-10T08:08:16.584Z,10.39
2022-10-10T08:09:17.173Z,10.34
2022-10-10T08:10:16.624Z,10.34
2022-10-10T08:11:17.064Z,10.56
2022-10-10T08:12:16.532Z,10.56
2022-10-10T08:13:16.973Z,10.56
2022-10-10T08:14:16.421Z,10.50
2022-10-10T08:15:16.880Z,10.44
2022-10-10T08:16:16.335Z,10.47
2022-10-10T08:17:16.793Z,10.48
2022-10-10T08:18:17.293Z,10.47
2022-10-10T08:19:16.794Z,10.45
2022-10-10T08:20:17.270Z,10.47
2022-10-10T08:21:16.733Z,10.74
2022-10-10T08:22:16.931Z,10.72
2022-10-10T08:23:16.405Z,10.74
2022-10-10T08:24:16.965Z,10.91
2022-10-10T08:25:16.397Z,10.92
2022-10-10T08:26:16.821Z,10.94
2022-10-10T08:27:17.263Z,10.85
2022-10-10T08:28:16.775Z,10.84
2022-10-10T08:29:16.302Z,10.98
2022-10-10T08:30:16.800Z,11.03
2022-10-10T08:31:17.302Z,10.95
2022-10-10T08:32:16.787Z,10.96
2022-10-10T08:33:17.271Z,11.00
2022-10-10T08:34:16.730Z,11.16
2022-10-10T08:35:17.207Z,11.25
2022-10-10T08:36:16.700Z,11.26
2022-10-10T08:37:17.155Z,11.29
2022-10-10T08:38:16.591Z,11.27
2022-10-10T08:39:17.032Z,11.20
2022-10-10T08:40:16.471Z,11.46
2022-10-10T08:41:16.908Z,11.50
2022-10-10T08:42:16.519Z,11.44
2022-10-10T08:43:16.984Z,11.53
2022-10-10T08:44:16.461Z,11.54
2022-10-10T08:45:16.925Z,11.58
2022-10-10T08:46:16.386Z,11.70
2022-10-10T08:47:16.875Z,11.67
2022-10-10T08:48:16.349Z,11.64
2022-10-10T08:49:16.814Z,11.68
2022-10-10T08:50:17.292Z,11.89
2022-10-10T08:51:16.780Z,11.86
2022-10-10T08:52:16.959Z,11.77
2022-10-10T08:53:16.405Z,11.70
2022-10-10T08:54:16.845Z,11.74
2022-10-10T08:55:17.317Z,11.84
2022-10-10T08:56:16.764Z,11.98
2022-10-10T08:57:17.191Z,12.01
2022-10-10T08:58:16.630Z,11.89
2022-10-10T08:59:17.262Z,11.91
2022-10-10T09:00:16.787Z,11.95
2022-10-10T09:01:17.339Z,12.08
2022-10-10T09:02:17.332Z,12.25
2022-10-10T09:03:16.891Z,12.36
2022-10-10T09:04:16.342Z,12.30
2022-10-10T09:05:16.814Z,12.22
2022-10-10T09:06:17.248Z,12.20
2022-10-10T09:07:16.721Z,12.26
2022-10-10T09:08:17.173Z,12.29
2022-10-10T09:09:16.613Z,12.28
2022-10-10T09:10:17.080Z,12.33
2022-10-10T09:11:16.500Z,12.29
2022-10-10T09:12:17.239Z,12.39
2022-10-10T09:13:16.698Z,12.41
2022-10-10T09:14:17.191Z,12.47
2022-10-10T09:15:16.654Z,12.44
2022-10-10T09:16:17.123Z,12.53
2022-10-10T09:17:16.589Z,12.53
2022-10-10T09:18:17.063Z,12.44
2022-10-10T09:19:18.167Z,12.44
2022-10-10T09:20:16.948Z,12.49
2022-10-10T09:21:16.385Z,12.54
2022-10-10T09:22:16.837Z,12.63
2022-10-10T09:23:17.290Z,12.61
2022-10-10T09:24:16.712Z,12.68
2022-10-10T09:25:17.132Z,12.75
2022-10-10T09:26:16.602Z,12.89
2022-10-10T09:27:17.052Z,12.92
2022-10-10T09:28:16.535Z,13.01
2022-10-10T09:29:17.175Z,13.04
2022-10-10T09:30:16.659Z,13.12
2022-10-10T09:31:17.108Z,13.21
2022-10-10T09:32:16.729Z,13.33
2022-10-10T09:33:17.461Z,13.34
2022-10-10T09:34:16.921Z,13.26
2022-10-10T09:35:16.401Z,13.26
2022-10-10T09:36:16.833Z,13.29
2022-10-10T09:37:29.382Z,13.27
2022-10-10T09:38:16.835Z,13.33
2022-10-10T09:39:17.278Z,13.43
2022-10-10T09:40:16.978Z,13.54
2022-10-10T09:41:16.502Z,13.64
2022-10-10T09:42:17.050Z,13.87
2022-10-10T09:43:16.533Z,13.97
2022-10-10T09:44:16.992Z,14.08
2022-10-10T09:45:16.560Z,14.16
2022-10-10T09:46:17.058Z,14.20
2022-10-10T09:47:16.545Z,14.22
2022-10-10T09:48:17.006Z,14.33
2022-10-10T09:49:16.501Z,14.41
2022-10-10T09:50:16.982Z,14.40
2022-10-10T09:51:16.729Z,14.57
2022-10-10T09:52:17.065Z,14.64
2022-10-10T09:53:16.491Z,14.74
2022-10-10T09:54:16.923Z,14.76
2022-10-10T09:55:16.383Z,14.77
2022-10-10T09:56:16.831Z,14.83
2022-10-10T09:57:17.280Z,14.88
2022-10-10T09:58:16.776Z,14.98
2022-10-10T09:59:17.248Z,15.02
2022-10-10T10:00:16.848Z,15.01
2022-10-10T10:01:16.344Z,14.90
2022-10-10T10:02:16.874Z,14.94
2022-10-10T10:03:16.344Z,14.97
2022-10-10T10:04:27.514Z,14.97
2022-10-10T10:05:16.676Z,15.08
2022-10-10T10:06:17.135Z,15.15
2022-10-10T10:07:16.589Z,15.09
2022-10-10T10:08:17.005Z,15.08
2022-10-10T10:09:16.428Z,15.01
2022-10-10T10:10:16.914Z,15.04
2022-10-10T10:11:16.385Z,14.98
2022-10-10T10:12:17.121Z,15.01
2022-10-10T10:13:16.583Z,15.02
2022-10-10T10:14:17.039Z,14.99
2022-10-10T10:15:16.505Z,14.95
2022-10-10T10:16:16.960Z,15.09
2022-10-10T10:17:16.412Z,15.15
2022-10-10T10:18:16.897Z,15.38
2022-10-10T10:19:16.412Z,15.45
2022-10-10T10:20:16.878Z,15.60
2022-10-10T10:21:16.399Z,15.67
2022-10-10T10:22:18.718Z,15.59
2022-10-10T10:23:16.661Z,15.70
2022-10-10T10:24:17.090Z,15.74
2022-10-10T10:25:16.515Z,15.73
2022-10-10T10:26:16.962Z,15.81
2022-10-10T10:27:16.416Z,15.78
2022-10-10T10:28:16.916Z,15.80
2022-10-10T10:29:16.484Z,15.90
2022-10-10T10:30:16.990Z,15.85
2022-10-10T10:31:16.482Z,15.91
2022-10-10T10:32:16.455Z,15.74
2022-10-10T10:33:16.918Z,15.85
2022-10-10T10:34:16.339Z,15.87
2022-10-10T10:35:16.792Z,15.78
2022-10-10T10:36:17.220Z,15.91
2022-10-10T10:37:16.675Z,15.85
2022-10-10T10:38:17.097Z,15.78
2022-10-10T10:39:16.519Z,16.04
2022-10-10T10:40:17.082Z,16.07
2022-10-10T10:41:16.537Z,15.97
2022-10-10T10:42:16.907Z,16.02
2022-10-10T10:43:16.387Z,16.14
2022-10-10T10:44:16.851Z,16.21
2022-10-10T10:45:16.319Z,16.28
2022-10-10T10:46:16.798Z,16.25
2022-10-10T10:47:17.271Z,15.97
2022-10-10T10:48:16.734Z,16.15
2022-10-10T10:49:17.915Z,16.40
2022-10-10T10:50:16.540Z,16.47
2022-10-10T10:51:17.005Z,16.43
2022-10-10T10:52:16.434Z,16.35
2022-10-10T10:53:16.855Z,16.43
2022-10-10T10:54:16.292Z,16.49
2022-10-10T10:55:16.728Z,16.42
2022-10-10T10:56:17.196Z,16.46
2022-10-10T10:57:32.068Z,16.52
2022-10-10T10:58:58.580Z,16.45
2022-10-10T10:59:36.134Z,16.43
2022-10-10T11:00:33.625Z,16.43
2022-10-10T11:01:20.104Z,16.32
2022-10-10T11:02:26.434Z,16.40
2022-10-10T11:03:38.267Z,16.49
2022-10-10T11:05:21.610Z,16.42
2022-10-10T11:05:25.353Z,16.40
2022-10-10T11:06:16.876Z,16.39
2022-10-10T11:07:19.277Z,16.46
2022-10-10T11:08:16.538Z,16.33
2022-10-10T11:09:37.822Z,16.35
2022-10-10T11:10:16.478Z,16.40
2022-10-10T11:11:16.989Z,16.56
2022-10-10T11:12:16.698Z,16.63
2022-10-10T11:13:17.184Z,16.73
2022-10-10T11:14:16.657Z,16.70
2022-10-10T11:15:17.159Z,16.63
2022-10-10T11:16:24.611Z,16.62
2022-10-10T11:17:17.034Z,16.78
2022-10-10T11:18:16.493Z,16.74
2022-10-10T11:19:17.184Z,16.74
2022-10-10T11:20:16.646Z,16.78
2022-10-10T11:21:17.115Z,16.90
2022-10-10T11:22:16.759Z,16.73
2022-10-10T11:23:17.231Z,16.64
2022-10-10T11:24:16.662Z,16.57
2022-10-10T11:25:17.104Z,16.64
2022-10-10T11:26:16.631Z,16.73
2022-10-10T11:27:17.106Z,16.67
2022-10-10T11:28:16.654Z,16.68
2022-10-10T11:29:17.267Z,16.83
2022-10-10T11:30:16.752Z,16.76
2022-10-10T11:31:17.231Z,16.81
2022-10-10T11:32:16.883Z,16.74
2022-10-10T11:33:16.342Z,16.67
2022-10-10T11:34:16.768Z,16.56
2022-10-10T11:35:16.409Z,16.46
2022-10-10T11:36:16.970Z,16.43
2022-10-10T11:37:16.390Z,16.39
2022-10-10T11:38:16.834Z,16.50
2022-10-10T11:39:16.283Z,16.49
2022-10-10T11:40:16.722Z,16.52
2022-10-10T11:41:17.179Z,16.57
2022-10-10T11:42:16.721Z,16.66
2022-10-10T11:43:17.252Z,16.71
2022-10-10T11:44:16.740Z,16.74
2022-10-10T11:45:17.232Z,16.68
2022-10-10T11:46:16.713Z,16.78
2022-10-10T11:47:17.191Z,16.74
2022-10-10T11:48:16.624Z,16.76
2022-10-10T11:49:17.063Z,16.80
2022-10-10T11:50:16.499Z,16.94
2022-10-10T11:51:16.933Z,16.97
2022-10-10T11:52:32.829Z,16.98
2022-10-10T11:53:16.485Z,16.98
2022-10-10T11:54:16.943Z,16.91
2022-10-10T11:55:16.373Z,16.97
2022-10-10T11:56:16.841Z,17.04
2022-10-10T11:57:16.319Z,17.05
2022-10-10T11:58:16.794Z,17.17
2022-10-10T11:59:17.271Z,17.08
2022-10-10T12:00:16.778Z,17.07
2022-10-10T12:01:17.232Z,17.21
2022-10-10T12:02:16.577Z,17.15
2022-10-10T12:03:17.013Z,17.04
2022-10-10T12:04:16.435Z,16.98
2022-10-10T12:05:16.885Z,16.87
2022-10-10T12:06:16.357Z,16.77
2022-10-10T12:07:16.844Z,16.77
2022-10-10T12:08:17.838Z,16.73
2022-10-10T12:09:16.900Z,16.60
2022-10-10T12:10:16.373Z,16.62
2022-10-10T12:11:16.821Z,16.74
2022-10-10T12:12:17.268Z,16.74
2022-10-10T12:13:16.745Z,16.71
2022-10-10T12:14:17.233Z,16.67
2022-10-10T12:15:16.710Z,16.67
2022-10-10T12:16:17.183Z,16.81
2022-10-10T12:17:16.626Z,16.84
2022-10-10T12:18:17.090Z,16.97
2022-10-10T12:19:16.520Z,16.95
2022-10-10T12:20:16.960Z,17.01
2022-10-10T12:21:16.376Z,17.05
2022-10-10T12:22:18.868Z,17.13
2022-10-10T12:23:16.345Z,17.22
2022-10-10T12:24:16.787Z,17.21
2022-10-10T12:25:17.245Z,17.22
2022-10-10T12:26:16.735Z,17.33
2022-10-10T12:27:17.236Z,17.43
2022-10-10T12:28:16.778Z,17.53
2022-10-10T12:29:16.345Z,17.43
2022-10-10T12:30:16.837Z,17.43
2022-10-10T12:31:17.272Z,17.54
2022-10-10T12:32:16.560Z,17.59
2022-10-10T12:33:16.992Z,17.56
2022-10-10T12:34:16.416Z,17.66
2022-10-10T12:35:16.851Z,17.73
2022-10-10T12:36:17.306Z,17.81
2022-10-10T12:37:16.749Z,17.79
2022-10-10T12:38:17.456Z,17.60
2022-10-10T12:39:16.919Z,17.48
2022-10-10T12:40:16.373Z,17.28
2022-10-10T12:41:16.844Z,17.22
2022-10-10T12:42:16.596Z,17.24
2022-10-10T12:43:17.060Z,17.28
2022-10-10T12:44:16.541Z,17.25
2022-10-10T12:45:17.018Z,17.22
2022-10-10T12:46:16.515Z,17.28
2022-10-10T12:47:16.970Z,17.29
2022-10-10T12:48:16.424Z,17.46
2022-10-10T12:49:16.917Z,17.52
2022-10-10T12:50:16.373Z,17.63
2022-10-10T12:51:16.802Z,17.69
2022-10-10T12:52:16.639Z,17.83
2022-10-10T12:53:17.089Z,17.89
2022-10-10T12:54:16.612Z,18.00
2022-10-10T12:55:17.090Z,17.94
2022-10-10T12:56:16.593Z,18.05
2022-10-10T12:57:17.065Z,18.04
2022-10-10T12:58:25.992Z,17.96
2022-10-10T12:59:16.998Z,18.04
2022-10-10T13:00:16.484Z,17.93
2022-10-10T13:01:16.993Z,17.89
2022-10-10T13:02:16.529Z,17.83
2022-10-10T13:03:16.953Z,17.86
2022-10-10T13:04:16.373Z,17.86
2022-10-10T13:05:16.827Z,17.84
2022-10-10T13:06:17.251Z,17.83
2022-10-10T13:07:16.681Z,17.76
2022-10-10T13:08:17.157Z,17.66